Terminal Aerodrome Forecast
Issued by NWS Sioux Falls, SD

Home | Current Version | Previous Version | Graphics & Text | Print | Product List | Glossary On
Versions: 1 2 3 4 5 6 7 8 9 10 11 12 13 14 15 16 17
000
FTUS43 KFSD 260628 AAA
TAFFSD
TAF AMD
KFSD 260628Z 2606/2706 02006KT P6SM SCT035 BKN080
     FM261000 02005KT P6SM SCT015 BKN100
      TEMPO 2610/2614 BKN015
     FM261500 02010KT P6SM SCT015 OVC050
     FM262200 35009KT P6SM BKN100=

USA.gov is the U.S. government's official web portal to all federal, state and local government web resources and services.